createdAt,value
2022-08-07T00:00:36.183Z,92.19
2022-08-07T00:03:06.282Z,92.38
2022-08-07T00:05:36.139Z,92.52
2022-08-07T00:08:04.530Z,92.60
2022-08-07T00:10:31.828Z,92.66
2022-08-07T00:13:02.068Z,92.87
2022-08-07T00:15:46.315Z,92.58
2022-08-07T00:18:24.712Z,92.62
2022-08-07T00:21:01.926Z,92.79
2022-08-07T00:23:34.318Z,93.04
2022-08-07T00:26:10.836Z,93.05
2022-08-07T00:28:45.622Z,93.21
2022-08-07T00:31:16.689Z,93.03
2022-08-07T00:33:47.720Z,93.32
2022-08-07T00:36:14.488Z,93.18
2022-08-07T00:38:40.931Z,93.33
2022-08-07T00:41:10.043Z,93.24
2022-08-07T00:44:01.747Z,93.38
2022-08-07T00:46:29.130Z,93.45
2022-08-07T00:48:55.802Z,93.67
2022-08-07T00:51:22.243Z,93.69
2022-08-07T00:53:55.896Z,93.62
2022-08-07T00:56:30.247Z,93.90
2022-08-07T00:58:57.855Z,93.85
2022-08-07T01:01:24.538Z,93.98
2022-08-07T01:03:55.831Z,93.95
2022-08-07T01:06:27.994Z,93.88
2022-08-07T01:08:56.294Z,93.74
2022-08-07T01:12:09.179Z,93.73
2022-08-07T01:14:16.594Z,93.92
2022-08-07T01:16:47.264Z,93.85
2022-08-07T01:19:18.794Z,94.01
2022-08-07T01:21:48.960Z,93.75
2022-08-07T01:24:18.744Z,93.77
2022-08-07T01:26:52.270Z,93.89
2022-08-07T01:29:20.525Z,93.80
2022-08-07T01:31:49.171Z,94.12
2022-08-07T01:34:17.735Z,94.08
2022-08-07T01:36:52.459Z,94.08
2022-08-07T01:39:24.444Z,94.38
2022-08-07T01:42:37.109Z,94.30
2022-08-07T01:44:53.073Z,94.31
2022-08-07T01:48:17.762Z,94.21
2022-08-07T01:50:06.810Z,94.15
2022-08-07T01:52:35.192Z,94.16
2022-08-07T01:55:03.858Z,93.94
2022-08-07T01:58:01.294Z,93.62
2022-08-07T02:00:28.879Z,94.07
2022-08-07T02:03:11.997Z,94.04
2022-08-07T02:05:59.745Z,93.85
2022-08-07T02:08:29.257Z,93.83
2022-08-07T02:10:58.160Z,93.90
2022-08-07T02:13:58.277Z,93.93
2022-08-07T02:16:14.767Z,93.83
2022-08-07T02:18:47.044Z,94.11
2022-08-07T02:21:16.405Z,94.17
2022-08-07T02:23:45.061Z,94.04
2022-08-07T02:26:32.880Z,94.25
2022-08-07T02:29:02.235Z,94.06
2022-08-07T02:31:30.123Z,94.39
2022-08-07T02:34:11.431Z,94.49
2022-08-07T02:36:45.317Z,94.49
2022-08-07T02:39:16.937Z,94.50
2022-08-07T02:42:02.902Z,94.66
2022-08-07T02:44:37.388Z,95.00
2022-08-07T02:47:19.747Z,94.69
2022-08-07T02:49:57.777Z,94.74
2022-08-07T02:52:51.962Z,94.64
2022-08-07T02:55:28.332Z,94.64
2022-08-07T02:58:13.371Z,94.53
2022-08-07T03:00:42.141Z,94.50
2022-08-07T03:03:22.689Z,94.92
2022-08-07T03:05:53.554Z,94.70
2022-08-07T03:08:29.176Z,94.66
2022-08-07T03:10:57.412Z,94.24
2022-08-07T03:13:24.595Z,94.89
2022-08-07T03:15:56.541Z,94.63
2022-08-07T03:18:34.285Z,94.59
2022-08-07T03:21:04.674Z,94.64
2022-08-07T03:24:20.466Z,94.89
2022-08-07T03:26:34.846Z,95.03
2022-08-07T03:29:05.505Z,94.57
2022-08-07T03:31:42.481Z,94.60
2022-08-07T03:34:18.214Z,94.74
2022-08-07T03:36:49.815Z,94.51
2022-08-07T03:39:17.625Z,94.76
2022-08-07T03:42:06.353Z,94.61
2022-08-07T03:44:37.466Z,94.91
2022-08-07T03:47:13.029Z,95.04
2022-08-07T03:49:51.860Z,94.96
2022-08-07T03:52:22.567Z,95.18
2022-08-07T03:54:54.993Z,95.20
2022-08-07T03:58:33.205Z,95.20
2022-08-07T04:00:14.316Z,95.11
2022-08-07T04:02:43.099Z,94.90
2022-08-07T04:05:14.022Z,95.16
2022-08-07T04:07:51.233Z,95.12
2022-08-07T04:10:19.537Z,94.85
2022-08-07T04:12:48.782Z,95.19
2022-08-07T04:15:19.098Z,94.86
2022-08-07T04:18:30.797Z,94.73
2022-08-07T04:20:35.147Z,95.02
2022-08-07T04:23:06.440Z,95.19
2022-08-07T04:25:39.000Z,95.30
2022-08-07T04:28:10.188Z,95.29
2022-08-07T04:30:51.266Z,95.36
2022-08-07T04:33:24.769Z,95.44
2022-08-07T04:35:54.022Z,95.31
2022-08-07T04:38:21.857Z,95.56
2022-08-07T04:40:52.057Z,95.40
2022-08-07T04:44:10.470Z,95.70
2022-08-07T04:46:25.785Z,95.63
2022-08-07T04:49:18.365Z,95.61
2022-08-07T04:52:00.136Z,95.81
2022-08-07T04:54:51.031Z,95.59
2022-08-07T04:58:13.073Z,95.76
2022-08-07T05:00:30.856Z,95.43
2022-08-07T05:03:59.877Z,95.67
2022-08-07T05:06:20.418Z,95.20
2022-08-07T05:09:12.643Z,95.39
2022-08-07T05:11:57.314Z,95.57
2022-08-07T05:14:54.377Z,95.90
2022-08-07T05:17:52.454Z,95.50
2022-08-07T05:20:13.739Z,95.52
2022-08-07T05:22:43.481Z,95.79
2022-08-07T05:25:25.760Z,95.50
2022-08-07T05:28:16.733Z,95.53
2022-08-07T05:30:47.118Z,95.40
2022-08-07T05:33:14.916Z,95.67
2022-08-07T05:35:42.526Z,95.48
2022-08-07T05:38:10.573Z,95.00
2022-08-07T05:40:50.362Z,95.02
2022-08-07T05:43:18.724Z,94.97
2022-08-07T05:45:46.903Z,95.05
2022-08-07T05:48:15.295Z,94.74
2022-08-07T05:50:43.459Z,94.75
2022-08-07T05:54:12.053Z,94.53
2022-08-07T05:56:03.249Z,94.63
2022-08-07T05:58:36.631Z,94.37
2022-08-07T06:01:05.985Z,94.11
2022-08-07T06:03:56.929Z,94.09
2022-08-07T06:06:29.354Z,93.26
2022-08-07T06:08:57.106Z,92.50
2022-08-07T06:11:25.096Z,91.53
2022-08-07T06:14:12.652Z,90.52
2022-08-07T06:16:39.696Z,89.77
2022-08-07T06:19:06.918Z,89.00
2022-08-07T06:22:14.586Z,86.90
2022-08-07T06:24:45.436Z,86.94
2022-08-07T06:27:06.966Z,87.11
2022-08-07T06:29:34.463Z,86.24
2022-08-07T06:32:05.451Z,85.52
2022-08-07T06:34:31.896Z,84.47
2022-08-07T06:36:58.348Z,83.39
2022-08-07T06:40:16.542Z,82.82
2022-08-07T06:42:33.031Z,82.32
2022-08-07T06:45:02.433Z,81.03
2022-08-07T06:47:38.745Z,79.61
2022-08-07T06:50:15.063Z,78.07
2022-08-07T06:52:53.017Z,76.65
2022-08-07T06:55:33.325Z,74.75
2022-08-07T06:58:13.765Z,71.61
2022-08-07T07:00:44.372Z,70.63
2022-08-07T07:03:13.836Z,71.97
2022-08-07T07:06:05.475Z,66.07
2022-08-07T07:08:33.028Z,63.87
2022-08-07T07:11:00.972Z,60.60
2022-08-07T07:13:56.265Z,62.45
2022-08-07T07:16:34.389Z,58.75
2022-08-07T07:19:55.679Z,55.99
2022-08-07T07:22:04.800Z,59.06
2022-08-07T07:24:42.976Z,57.93
2022-08-07T07:27:35.641Z,56.96
2022-08-07T07:30:32.336Z,55.50
2022-08-07T07:33:01.346Z,56.51
2022-08-07T07:35:28.390Z,56.61
2022-08-07T07:38:05.834Z,54.27
2022-08-07T07:40:34.776Z,53.64
2022-08-07T07:43:15.440Z,53.45
2022-08-07T07:46:38.576Z,49.63
2022-08-07T07:48:36.515Z,49.47
2022-08-07T07:51:08.133Z,51.37
2022-08-07T07:53:51.256Z,49.37
2022-08-07T07:56:30.245Z,48.56
2022-08-07T07:59:00.217Z,49.47
2022-08-07T08:02:03.336Z,48.56
2022-08-07T08:04:18.421Z,48.66
2022-08-07T08:06:48.156Z,43.57
2022-08-07T08:09:23.249Z,44.73
2022-08-07T08:12:02.221Z,46.37
2022-08-07T08:14:31.479Z,45.95
2022-08-07T08:17:56.389Z,44.58
2022-08-07T08:20:18.752Z,46.93
2022-08-07T08:23:02.276Z,44.79
2022-08-07T08:25:51.156Z,43.15
2022-08-07T08:28:38.242Z,45.67
2022-08-07T08:31:14.577Z,45.34
2022-08-07T08:33:48.934Z,45.90
2022-08-07T08:36:25.487Z,43.07
2022-08-07T08:38:57.463Z,40.74
2022-08-07T08:41:57.522Z,43.61
2022-08-07T08:44:57.110Z,43.51
2022-08-07T08:47:28.937Z,40.62
2022-08-07T08:50:39.581Z,43.81
2022-08-07T08:53:19.222Z,44.13
2022-08-07T08:55:59.165Z,44.18
2022-08-07T08:58:54.676Z,42.93
2022-08-07T09:01:40.118Z,42.32
2022-08-07T09:04:36.683Z,43.29
2022-08-07T09:07:11.446Z,39.70
2022-08-07T09:10:17.629Z,42.68
2022-08-07T09:13:36.946Z,42.38
2022-08-07T09:16:21.957Z,37.00
2022-08-07T09:19:07.143Z,39.18
2022-08-07T09:24:33.192Z,41.10
2022-08-07T09:26:05.496Z,37.73
2022-08-07T09:30:05.813Z,38.02
2022-08-07T09:31:54.829Z,38.89
2022-08-07T09:34:27.625Z,36.63
2022-08-07T09:37:00.167Z,38.76
2022-08-07T09:39:56.068Z,38.55
2022-08-07T09:42:39.516Z,35.51
2022-08-07T09:47:25.279Z,39.50
2022-08-07T09:50:00.887Z,39.03
2022-08-07T09:52:16.021Z,39.84
2022-08-07T09:54:57.648Z,38.31
2022-08-07T09:57:46.838Z,37.70
2022-08-07T10:00:16.643Z,34.77
2022-08-07T10:04:07.207Z,36.83
2022-08-07T10:06:36.162Z,37.01
2022-08-07T10:09:34.320Z,36.57
2022-08-07T10:12:32.515Z,35.97
2022-08-07T10:15:44.281Z,33.36
2022-08-07T10:18:49.608Z,37.39
2022-08-07T10:22:12.293Z,32.94
2022-08-07T10:24:30.051Z,32.37
2022-08-07T10:27:46.785Z,35.56
2022-08-07T10:30:17.835Z,33.46
2022-08-07T10:33:05.709Z,32.36
2022-08-07T10:36:10.958Z,32.06
2022-08-07T10:39:01.497Z,33.83
2022-08-07T10:41:52.063Z,32.49
2022-08-07T10:44:39.176Z,29.56
2022-08-07T10:47:53.581Z,33.85
2022-08-07T10:50:29.484Z,31.83
2022-08-07T10:52:55.807Z,29.47
2022-08-07T10:55:37.783Z,31.50
2022-08-07T10:58:59.601Z,32.58
2022-08-07T11:01:51.393Z,31.67
2022-08-07T11:04:51.196Z,32.86
2022-08-07T11:07:58.784Z,28.51
2022-08-07T11:10:29.775Z,33.60
2022-08-07T11:13:42.266Z,30.54
2022-08-07T11:16:08.377Z,27.48
2022-08-07T11:19:07.008Z,31.61
2022-08-07T11:21:50.080Z,28.64
2022-08-07T11:24:32.981Z,28.28
2022-08-07T11:27:13.505Z,29.60
2022-08-07T11:30:18.040Z,30.17
2022-08-07T11:33:01.199Z,32.83
2022-08-07T11:35:59.219Z,28.62
2022-08-07T11:38:33.328Z,28.62
2022-08-07T11:41:09.328Z,28.55
2022-08-07T11:44:11.364Z,29.19
2022-08-07T11:47:02.337Z,28.32
2022-08-07T11:50:32.300Z,33.01
2022-08-07T11:53:16.160Z,31.11
2022-08-07T11:56:25.528Z,31.58
2022-08-07T11:59:22.208Z,30.23
2022-08-07T12:02:20.717Z,29.15
2022-08-07T12:04:59.423Z,28.50
2022-08-07T12:07:38.750Z,24.69
2022-08-07T12:10:13.660Z,27.31
2022-08-07T12:12:46.502Z,25.15
2022-08-07T12:15:46.216Z,25.46
2022-08-07T12:18:29.812Z,26.79
2022-08-07T12:22:36.985Z,29.54
2022-08-07T12:24:38.181Z,29.74
2022-08-07T12:27:15.922Z,25.07
2022-08-07T12:29:51.811Z,26.63
2022-08-07T12:32:28.756Z,26.26
2022-08-07T12:34:58.339Z,26.62
2022-08-07T12:37:28.289Z,26.48
2022-08-07T12:40:43.986Z,26.65
2022-08-07T12:43:09.239Z,25.86
2022-08-07T12:45:45.111Z,26.35
2022-08-07T12:48:41.462Z,29.86
2022-08-07T12:51:23.959Z,25.56
2022-08-07T12:54:38.740Z,31.16
2022-08-07T12:57:07.372Z,33.66
2022-08-07T12:59:54.253Z,35.62
2022-08-07T13:02:39.996Z,37.93
2022-08-07T13:06:04.477Z,38.16
2022-08-07T13:08:43.338Z,39.40
2022-08-07T13:12:01.972Z,37.80
2022-08-07T13:14:34.928Z,39.16
2022-08-07T13:17:39.990Z,38.90
2022-08-07T13:20:27.755Z,37.91
2022-08-07T13:22:59.277Z,39.50
2022-08-07T13:25:45.624Z,39.19
2022-08-07T13:28:25.178Z,36.74
2022-08-07T13:31:06.443Z,39.88
2022-08-07T13:34:30.769Z,39.19
2022-08-07T13:36:59.460Z,39.44
2022-08-07T13:40:34.018Z,38.51
2022-08-07T13:42:25.941Z,36.80
2022-08-07T13:46:06.628Z,39.29
2022-08-07T13:48:06.017Z,40.29
2022-08-07T13:50:44.472Z,42.21
2022-08-07T13:53:23.796Z,38.26
2022-08-07T13:55:54.613Z,41.60
2022-08-07T13:58:56.556Z,41.83
2022-08-07T14:01:26.949Z,40.21
2022-08-07T14:04:05.421Z,40.37
2022-08-07T14:06:40.403Z,42.85
2022-08-07T14:09:17.195Z,38.58
2022-08-07T14:12:07.314Z,39.32
2022-08-07T14:14:48.392Z,41.30
2022-08-07T14:18:12.711Z,39.00
2022-08-07T14:20:43.458Z,42.97
2022-08-07T14:23:18.040Z,42.33
2022-08-07T14:26:11.357Z,41.53
2022-08-07T14:29:10.512Z,42.12
2022-08-07T14:31:57.946Z,39.97
2022-08-07T14:34:30.333Z,39.91
2022-08-07T14:37:03.144Z,41.76
2022-08-07T14:40:18.105Z,41.33
2022-08-07T14:42:32.554Z,42.64
2022-08-07T14:45:22.376Z,43.96
2022-08-07T14:50:45.579Z,44.37
2022-08-07T14:53:16.307Z,42.26
2022-08-07T14:56:13.069Z,42.74
2022-08-07T14:58:43.951Z,43.93
2022-08-07T15:01:21.691Z,45.22
2022-08-07T15:03:52.453Z,42.89
2022-08-07T15:06:27.435Z,43.14
2022-08-07T15:12:06.798Z,44.17
2022-08-07T15:14:35.197Z,46.91
2022-08-07T15:17:32.512Z,45.77
2022-08-07T15:23:15.088Z,43.71
2022-08-07T15:25:50.862Z,45.95
2022-08-07T15:32:00.591Z,45.99
2022-08-07T15:34:02.171Z,45.18
2022-08-07T15:37:03.852Z,47.76
2022-08-07T15:39:17.156Z,48.52
2022-08-07T15:42:44.755Z,49.31
2022-08-07T15:44:52.027Z,46.36
2022-08-07T15:47:21.348Z,48.96
2022-08-07T15:53:15.429Z,49.03
2022-08-07T15:56:02.588Z,49.24
2022-08-07T15:58:41.553Z,51.19
2022-08-07T16:01:20.150Z,50.61
2022-08-07T16:03:54.412Z,50.69
2022-08-07T16:06:30.387Z,51.63
2022-08-07T16:09:01.843Z,48.09
2022-08-07T16:11:41.685Z,49.21
2022-08-07T16:14:48.620Z,49.46
2022-08-07T16:18:02.134Z,48.53
2022-08-07T16:20:55.192Z,49.77
2022-08-07T16:23:58.675Z,50.30
2022-08-07T16:26:30.823Z,52.98
2022-08-07T16:30:06.345Z,51.10
2022-08-07T16:32:46.610Z,50.90
2022-08-07T16:35:51.606Z,50.89
2022-08-07T16:38:09.623Z,51.20
2022-08-07T16:41:01.468Z,51.80
2022-08-07T16:44:05.553Z,52.87
2022-08-07T16:47:18.622Z,52.23
2022-08-07T16:50:36.290Z,52.24
2022-08-07T16:54:01.738Z,52.42
2022-08-07T16:56:20.146Z,53.22
2022-08-07T16:59:11.276Z,54.34
2022-08-07T17:01:47.705Z,52.03
2022-08-07T17:04:33.031Z,53.23
2022-08-07T17:07:28.178Z,53.92
2022-08-07T17:10:32.529Z,53.29
2022-08-07T17:13:41.252Z,54.39
2022-08-07T17:16:28.463Z,53.54
2022-08-07T17:19:03.804Z,55.07
2022-08-07T17:21:51.876Z,53.86
2022-08-07T17:24:55.254Z,56.34
2022-08-07T17:27:50.703Z,55.01
2022-08-07T17:30:20.250Z,54.99
2022-08-07T17:34:08.327Z,55.64
2022-08-07T17:36:20.922Z,55.09
2022-08-07T17:38:50.956Z,57.33
2022-08-07T17:42:04.071Z,55.68
2022-08-07T17:44:45.267Z,56.02
2022-08-07T17:47:42.309Z,57.27
2022-08-07T17:50:22.341Z,56.58
2022-08-07T17:53:00.516Z,56.25
2022-08-07T17:56:00.363Z,57.51
2022-08-07T17:58:46.526Z,57.68
2022-08-07T18:01:39.585Z,56.86
2022-08-07T18:04:24.724Z,58.88
2022-08-07T18:07:22.903Z,56.43
2022-08-07T18:10:07.265Z,57.98
2022-08-07T18:12:51.267Z,57.86
2022-08-07T18:15:35.661Z,59.06
2022-08-07T18:18:39.941Z,59.16
2022-08-07T18:21:42.360Z,59.51
2022-08-07T18:24:33.034Z,58.92
2022-08-07T18:27:22.807Z,61.05
2022-08-07T18:30:07.621Z,60.19
2022-08-07T18:33:15.931Z,62.43
2022-08-07T18:36:14.380Z,62.20
2022-08-07T18:40:06.630Z,63.65
2022-08-07T18:42:16.778Z,62.89
2022-08-07T18:45:42.838Z,63.17
2022-08-07T18:49:23.729Z,63.49
2022-08-07T18:52:35.501Z,63.65
2022-08-07T18:54:30.509Z,65.65
2022-08-07T18:57:30.111Z,66.17
2022-08-07T19:00:32.963Z,65.66
2022-08-07T19:03:02.750Z,67.66
2022-08-07T19:06:02.064Z,66.71
2022-08-07T19:08:49.427Z,67.74
2022-08-07T19:11:36.559Z,67.77
2022-08-07T19:14:40.992Z,67.46
2022-08-07T19:18:01.643Z,67.36
2022-08-07T19:20:28.731Z,68.40
2022-08-07T19:23:18.413Z,68.50
2022-08-07T19:26:22.768Z,69.86
2022-08-07T19:31:00.694Z,70.13
2022-08-07T19:32:10.955Z,71.20
2022-08-07T19:34:40.293Z,71.69
2022-08-07T19:37:17.313Z,72.18
2022-08-07T19:39:56.359Z,72.99
2022-08-07T19:42:26.955Z,72.12
2022-08-07T19:45:08.010Z,72.55
2022-08-07T19:47:43.175Z,72.73
2022-08-07T19:50:44.392Z,72.08
2022-08-07T19:52:59.003Z,72.19
2022-08-07T19:55:56.446Z,72.36
2022-08-07T19:58:16.800Z,73.25
2022-08-07T20:00:55.440Z,72.91
2022-08-07T20:03:34.565Z,72.64
2022-08-07T20:06:06.278Z,73.37
2022-08-07T20:08:48.817Z,73.41
2022-08-07T20:11:23.061Z,73.74
2022-08-07T20:14:03.018Z,73.97
2022-08-07T20:16:36.778Z,74.30
2022-08-07T20:19:25.153Z,75.32
2022-08-07T20:21:56.955Z,75.84
2022-08-07T20:24:30.128Z,75.04
2022-08-07T20:27:01.894Z,77.61
2022-08-07T20:29:47.950Z,77.83
2022-08-07T20:32:54.699Z,76.63
2022-08-07T20:35:26.483Z,77.20
2022-08-07T20:37:57.762Z,76.94
2022-08-07T20:40:32.407Z,77.01
2022-08-07T20:43:02.168Z,77.12
2022-08-07T20:45:33.126Z,78.28
2022-08-07T20:48:28.455Z,79.50
2022-08-07T20:50:59.196Z,79.67
2022-08-07T20:54:03.880Z,80.23
2022-08-07T20:56:16.035Z,80.78
2022-08-07T20:58:49.671Z,80.44
2022-08-07T21:01:21.451Z,81.41
2022-08-07T21:04:19.633Z,82.15
2022-08-07T21:06:46.557Z,81.55
2022-08-07T21:09:24.660Z,82.30
2022-08-07T21:11:57.527Z,82.51
2022-08-07T21:14:31.984Z,82.96
2022-08-07T21:18:20.782Z,83.04
2022-08-07T21:20:05.173Z,82.58
2022-08-07T21:22:44.685Z,82.41
2022-08-07T21:25:28.874Z,82.25
2022-08-07T21:28:09.279Z,82.42
2022-08-07T21:30:57.493Z,82.65
2022-08-07T21:33:41.129Z,83.74
2022-08-07T21:36:31.896Z,83.82
2022-08-07T21:39:47.181Z,83.80
2022-08-07T21:42:14.971Z,84.29
2022-08-07T21:46:05.436Z,85.46
2022-08-07T21:48:29.225Z,85.06
2022-08-07T21:51:32.082Z,85.13
2022-08-07T21:54:25.452Z,86.08
2022-08-07T21:56:54.908Z,84.94
2022-08-07T21:59:30.583Z,85.15
2022-08-07T22:02:11.106Z,85.43
2022-08-07T22:04:51.165Z,86.32
2022-08-07T22:07:31.703Z,86.36
2022-08-07T22:10:17.529Z,86.35
2022-08-07T22:12:46.839Z,85.86
2022-08-07T22:16:41.891Z,86.17
2022-08-07T22:18:23.701Z,86.62
2022-08-07T22:20:59.445Z,87.11
2022-08-07T22:23:56.829Z,86.84
2022-08-07T22:26:30.698Z,86.91
2022-08-07T22:29:23.625Z,86.88
2022-08-07T22:32:20.406Z,86.66
2022-08-07T22:34:54.608Z,86.82
2022-08-07T22:38:03.581Z,87.19
2022-08-07T22:40:37.178Z,87.35
2022-08-07T22:43:10.795Z,87.55
2022-08-07T22:47:02.583Z,87.62
2022-08-07T22:49:59.751Z,87.91
2022-08-07T22:52:48.686Z,88.04
2022-08-07T22:55:44.471Z,88.47
2022-08-07T22:58:35.073Z,88.56
2022-08-07T23:01:41.943Z,88.77
2022-08-07T23:04:58.178Z,89.07
2022-08-07T23:08:24.354Z,88.90
2022-08-07T23:11:26.603Z,89.11
2022-08-07T23:14:16.005Z,89.25
2022-08-07T23:17:30.428Z,89.89
2022-08-07T23:20:40.288Z,89.83
2022-08-07T23:24:06.464Z,89.79
2022-08-07T23:26:25.075Z,90.32
2022-08-07T23:29:43.918Z,90.43
2022-08-07T23:34:23.251Z,90.20
2022-08-07T23:35:16.706Z,90.62
2022-08-07T23:38:00.726Z,91.17
2022-08-07T23:40:51.651Z,91.27
2022-08-07T23:43:52.568Z,91.17
2022-08-07T23:46:37.391Z,91.37
2022-08-07T23:49:42.045Z,91.38
2022-08-07T23:53:01.036Z,91.26
2022-08-07T23:55:53.601Z,91.50
2022-08-07T23:58:21.191Z,91.85
